sensor_id;sensor_type;location;lat;lon;timestamp;temperature;humidity
5960;DHT22;3006;50.956;7.002;2023-10-13T00:01:14;17.50;94.30
5960;DHT22;3006;50.956;7.002;2023-10-13T00:03:44;17.50;94.30
5960;DHT22;3006;50.956;7.002;2023-10-13T00:06:12;17.40;94.60
5960;DHT22;3006;50.956;7.002;2023-10-13T00:08:40;17.40;94.90
5960;DHT22;3006;50.956;7.002;2023-10-13T00:11:12;17.50;94.80
5960;DHT22;3006;50.956;7.002;2023-10-13T00:13:42;17.50;94.70
5960;DHT22;3006;50.956;7.002;2023-10-13T00:16:17;17.50;94.70
5960;DHT22;3006;50.956;7.002;2023-10-13T00:21:24;17.40;94.70
5960;DHT22;3006;50.956;7.002;2023-10-13T00:24:00;17.40;95.00
5960;DHT22;3006;50.956;7.002;2023-10-13T00:26:29;17.50;95.00
5960;DHT22;3006;50.956;7.002;2023-10-13T00:29:02;17.40;95.00
5960;DHT22;3006;50.956;7.002;2023-10-13T00:31:37;17.50;94.80
5960;DHT22;3006;50.956;7.002;2023-10-13T00:34:06;17.50;94.40
5960;DHT22;3006;50.956;7.002;2023-10-13T00:36:40;17.50;94.80
5960;DHT22;3006;50.956;7.002;2023-10-13T00:39:15;17.50;94.90
5960;DHT22;3006;50.956;7.002;2023-10-13T00:41:44;17.50;95.00
5960;DHT22;3006;50.956;7.002;2023-10-13T00:44:20;17.50;94.70
5960;DHT22;3006;50.956;7.002;2023-10-13T00:46:55;17.50;94.30
5960;DHT22;3006;50.956;7.002;2023-10-13T00:49:24;17.60;93.80
5960;DHT22;3006;50.956;7.002;2023-10-13T00:51:51;17.70;93.40
5960;DHT22;3006;50.956;7.002;2023-10-13T00:54:22;17.60;93.70
5960;DHT22;3006;50.956;7.002;2023-10-13T00:56:55;17.60;93.70
5960;DHT22;3006;50.956;7.002;2023-10-13T00:59:35;17.50;93.70
5960;DHT22;3006;50.956;7.002;2023-10-13T01:02:03;17.50;93.70
5960;DHT22;3006;50.956;7.002;2023-10-13T01:04:52;17.50;94.10
5960;DHT22;3006;50.956;7.002;2023-10-13T01:07:21;17.60;93.50
5960;DHT22;3006;50.956;7.002;2023-10-13T01:09:51;17.60;93.70
5960;DHT22;3006;50.956;7.002;2023-10-13T01:12:18;17.60;93.20
5960;DHT22;3006;50.956;7.002;2023-10-13T01:14:48;17.60;93.50
5960;DHT22;3006;50.956;7.002;2023-10-13T01:17:16;17.70;92.80
5960;DHT22;3006;50.956;7.002;2023-10-13T01:19:45;17.80;92.60
5960;DHT22;3006;50.956;7.002;2023-10-13T01:22:12;17.70;92.80
5960;DHT22;3006;50.956;7.002;2023-10-13T01:24:42;17.60;93.00
5960;DHT22;3006;50.956;7.002;2023-10-13T01:27:10;17.60;93.20
5960;DHT22;3006;50.956;7.002;2023-10-13T01:29:45;17.70;93.00
5960;DHT22;3006;50.956;7.002;2023-10-13T01:32:16;17.70;92.80
5960;DHT22;3006;50.956;7.002;2023-10-13T01:34:44;17.70;93.00
5960;DHT22;3006;50.956;7.002;2023-10-13T01:37:14;17.80;92.60
5960;DHT22;3006;50.956;7.002;2023-10-13T01:39:44;17.60;93.20
5960;DHT22;3006;50.956;7.002;2023-10-13T01:42:15;17.60;93.40
5960;DHT22;3006;50.956;7.002;2023-10-13T01:44:47;17.60;93.30
5960;DHT22;3006;50.956;7.002;2023-10-13T01:47:15;17.50;93.90
5960;DHT22;3006;50.956;7.002;2023-10-13T01:49:43;17.50;94.10
5960;DHT22;3006;50.956;7.002;2023-10-13T01:52:15;17.50;94.00
5960;DHT22;3006;50.956;7.002;2023-10-13T01:54:46;17.60;93.70
5960;DHT22;3006;50.956;7.002;2023-10-13T01:57:16;17.50;93.70
5960;DHT22;3006;50.956;7.002;2023-10-13T01:59:45;17.60;93.60
5960;DHT22;3006;50.956;7.002;2023-10-13T02:02:15;17.60;93.40
5960;DHT22;3006;50.956;7.002;2023-10-13T02:04:46;17.60;93.50
5960;DHT22;3006;50.956;7.002;2023-10-13T02:07:28;17.50;93.80
5960;DHT22;3006;50.956;7.002;2023-10-13T02:09:59;17.60;93.60
5960;DHT22;3006;50.956;7.002;2023-10-13T02:12:31;17.80;93.00
5960;DHT22;3006;50.956;7.002;2023-10-13T02:15:04;17.60;93.50
5960;DHT22;3006;50.956;7.002;2023-10-13T02:17:32;17.60;93.30
5960;DHT22;3006;50.956;7.002;2023-10-13T02:20:08;17.60;93.90
5960;DHT22;3006;50.956;7.002;2023-10-13T02:22:42;17.70;93.30
5960;DHT22;3006;50.956;7.002;2023-10-13T02:25:18;17.50;93.80
5960;DHT22;3006;50.956;7.002;2023-10-13T02:28:03;17.50;94.50
5960;DHT22;3006;50.956;7.002;2023-10-13T02:30:37;17.50;94.40
5960;DHT22;3006;50.956;7.002;2023-10-13T02:33:05;17.50;94.40
5960;DHT22;3006;50.956;7.002;2023-10-13T02:35:33;17.60;93.90
5960;DHT22;3006;50.956;7.002;2023-10-13T02:38:03;17.60;94.20
5960;DHT22;3006;50.956;7.002;2023-10-13T02:40:39;17.50;94.10
5960;DHT22;3006;50.956;7.002;2023-10-13T02:43:07;17.50;94.30
5960;DHT22;3006;50.956;7.002;2023-10-13T02:45:34;17.60;93.70
5960;DHT22;3006;50.956;7.002;2023-10-13T02:48:04;17.60;93.60
5960;DHT22;3006;50.956;7.002;2023-10-13T02:50:43;17.50;94.30
5960;DHT22;3006;50.956;7.002;2023-10-13T02:53:12;17.60;93.80
5960;DHT22;3006;50.956;7.002;2023-10-13T02:55:50;17.50;94.80
5960;DHT22;3006;50.956;7.002;2023-10-13T02:58:19;17.60;94.20
5960;DHT22;3006;50.956;7.002;2023-10-13T03:00:47;17.60;94.00
5960;DHT22;3006;50.956;7.002;2023-10-13T03:03:16;17.60;94.30
5960;DHT22;3006;50.956;7.002;2023-10-13T03:05:45;17.70;93.80
5960;DHT22;3006;50.956;7.002;2023-10-13T03:08:14;17.50;94.40
5960;DHT22;3006;50.956;7.002;2023-10-13T03:10:54;17.50;94.70
5960;DHT22;3006;50.956;7.002;2023-10-13T03:13:22;17.60;94.40
5960;DHT22;3006;50.956;7.002;2023-10-13T03:15:49;17.60;94.10
5960;DHT22;3006;50.956;7.002;2023-10-13T03:18:17;17.50;94.70
5960;DHT22;3006;50.956;7.002;2023-10-13T03:20:45;17.60;94.30
5960;DHT22;3006;50.956;7.002;2023-10-13T03:23:17;17.80;93.70
5960;DHT22;3006;50.956;7.002;2023-10-13T03:25:44;17.60;94.50
5960;DHT22;3006;50.956;7.002;2023-10-13T03:28:21;17.60;94.40
5960;DHT22;3006;50.956;7.002;2023-10-13T03:30:52;17.80;93.80
5960;DHT22;3006;50.956;7.002;2023-10-13T03:33:20;17.80;93.80
5960;DHT22;3006;50.956;7.002;2023-10-13T03:35:53;17.80;93.60
5960;DHT22;3006;50.956;7.002;2023-10-13T03:38:26;17.60;93.90
5960;DHT22;3006;50.956;7.002;2023-10-13T03:40:54;17.80;93.70
5960;DHT22;3006;50.956;7.002;2023-10-13T03:43:36;17.70;93.70
5960;DHT22;3006;50.956;7.002;2023-10-13T03:46:12;17.50;94.50
5960;DHT22;3006;50.956;7.002;2023-10-13T03:48:41;17.40;95.50
5960;DHT22;3006;50.956;7.002;2023-10-13T03:51:21;17.40;95.70
5960;DHT22;3006;50.956;7.002;2023-10-13T03:53:57;17.30;96.20
5960;DHT22;3006;50.956;7.002;2023-10-13T03:56:26;17.30;96.30
5960;DHT22;3006;50.956;7.002;2023-10-13T03:59:00;17.40;96.20
5960;DHT22;3006;50.956;7.002;2023-10-13T04:01:33;17.20;96.50
5960;DHT22;3006;50.956;7.002;2023-10-13T04:04:11;17.20;96.70
5960;DHT22;3006;50.956;7.002;2023-10-13T04:06:39;17.30;96.50
5960;DHT22;3006;50.956;7.002;2023-10-13T04:09:24;17.20;96.70
5960;DHT22;3006;50.956;7.002;2023-10-13T04:12:12;17.30;96.60
5960;DHT22;3006;50.956;7.002;2023-10-13T04:15:10;17.30;96.50
5960;DHT22;3006;50.956;7.002;2023-10-13T04:17:54;17.30;96.70
5960;DHT22;3006;50.956;7.002;2023-10-13T04:20:22;17.20;96.90
5960;DHT22;3006;50.956;7.002;2023-10-13T04:23:00;17.30;96.80
5960;DHT22;3006;50.956;7.002;2023-10-13T04:25:52;17.40;96.50
5960;DHT22;3006;50.956;7.002;2023-10-13T04:28:35;17.40;96.70
5960;DHT22;3006;50.956;7.002;2023-10-13T04:31:18;17.20;97.10
5960;DHT22;3006;50.956;7.002;2023-10-13T04:34:12;17.40;97.00
5960;DHT22;3006;50.956;7.002;2023-10-13T04:36:55;17.40;97.10
5960;DHT22;3006;50.956;7.002;2023-10-13T04:39:38;17.40;97.20
5960;DHT22;3006;50.956;7.002;2023-10-13T04:42:06;17.40;97.60
5960;DHT22;3006;50.956;7.002;2023-10-13T04:44:40;17.40;97.50
5960;DHT22;3006;50.956;7.002;2023-10-13T04:47:24;17.40;97.50
5960;DHT22;3006;50.956;7.002;2023-10-13T04:49:56;17.40;97.60
5960;DHT22;3006;50.956;7.002;2023-10-13T04:52:27;17.40;97.70
5960;DHT22;3006;50.956;7.002;2023-10-13T04:55:28;17.40;97.90
5960;DHT22;3006;50.956;7.002;2023-10-13T04:58:26;17.40;97.70
5960;DHT22;3006;50.956;7.002;2023-10-13T05:01:23;17.40;97.60
5960;DHT22;3006;50.956;7.002;2023-10-13T05:04:07;17.50;97.60
5960;DHT22;3006;50.956;7.002;2023-10-13T05:06:49;17.50;97.70
5960;DHT22;3006;50.956;7.002;2023-10-13T05:09:35;17.50;97.70
5960;DHT22;3006;50.956;7.002;2023-10-13T05:12:20;17.50;97.80
5960;DHT22;3006;50.956;7.002;2023-10-13T05:15:03;17.50;97.60
5960;DHT22;3006;50.956;7.002;2023-10-13T05:17:49;17.50;98.00
5960;DHT22;3006;50.956;7.002;2023-10-13T05:20:36;17.80;97.10
5960;DHT22;3006;50.956;7.002;2023-10-13T05:23:21;17.90;96.20
5960;DHT22;3006;50.956;7.002;2023-10-13T05:26:22;18.00;96.00
5960;DHT22;3006;50.956;7.002;2023-10-13T05:29:07;17.90;95.70
5960;DHT22;3006;50.956;7.002;2023-10-13T05:31:55;17.90;95.90
5960;DHT22;3006;50.956;7.002;2023-10-13T05:34:43;18.00;95.50
5960;DHT22;3006;50.956;7.002;2023-10-13T05:37:31;18.00;95.50
5960;DHT22;3006;50.956;7.002;2023-10-13T05:40:17;18.00;95.50
5960;DHT22;3006;50.956;7.002;2023-10-13T05:43:03;18.00;95.40
5960;DHT22;3006;50.956;7.002;2023-10-13T05:45:49;18.10;95.30
5960;DHT22;3006;50.956;7.002;2023-10-13T05:48:43;18.20;94.70
5960;DHT22;3006;50.956;7.002;2023-10-13T05:51:36;18.10;94.50
5960;DHT22;3006;50.956;7.002;2023-10-13T05:54:15;18.10;94.80
5960;DHT22;3006;50.956;7.002;2023-10-13T05:57:01;18.10;94.70
5960;DHT22;3006;50.956;7.002;2023-10-13T05:59:46;18.10;95.10
5960;DHT22;3006;50.956;7.002;2023-10-13T06:02:32;18.20;94.60
5960;DHT22;3006;50.956;7.002;2023-10-13T06:05:32;18.30;94.20
5960;DHT22;3006;50.956;7.002;2023-10-13T06:08:18;18.10;95.00
5960;DHT22;3006;50.956;7.002;2023-10-13T06:11:05;18.20;95.10
5960;DHT22;3006;50.956;7.002;2023-10-13T06:13:56;18.10;95.10
5960;DHT22;3006;50.956;7.002;2023-10-13T06:16:38;18.20;95.00
5960;DHT22;3006;50.956;7.002;2023-10-13T06:19:24;18.20;94.90
5960;DHT22;3006;50.956;7.002;2023-10-13T06:22:10;18.30;95.00
5960;DHT22;3006;50.956;7.002;2023-10-13T06:24:55;18.50;94.60
5960;DHT22;3006;50.956;7.002;2023-10-13T06:27:42;18.70;93.00
5960;DHT22;3006;50.956;7.002;2023-10-13T06:30:28;18.60;93.00
5960;DHT22;3006;50.956;7.002;2023-10-13T06:32:56;18.80;92.50
5960;DHT22;3006;50.956;7.002;2023-10-13T06:35:24;18.80;92.20
5960;DHT22;3006;50.956;7.002;2023-10-13T06:37:52;18.80;92.70
5960;DHT22;3006;50.956;7.002;2023-10-13T06:40:20;18.70;93.20
5960;DHT22;3006;50.956;7.002;2023-10-13T06:43:01;18.60;93.60
5960;DHT22;3006;50.956;7.002;2023-10-13T06:45:45;18.70;93.10
5960;DHT22;3006;50.956;7.002;2023-10-13T06:48:18;18.90;92.10
5960;DHT22;3006;50.956;7.002;2023-10-13T06:50:50;19.00;91.70
5960;DHT22;3006;50.956;7.002;2023-10-13T06:53:19;19.00;91.80
5960;DHT22;3006;50.956;7.002;2023-10-13T06:55:47;19.10;91.50
5960;DHT22;3006;50.956;7.002;2023-10-13T06:58:23;19.20;90.30
5960;DHT22;3006;50.956;7.002;2023-10-13T07:00:52;19.30;90.10
5960;DHT22;3006;50.956;7.002;2023-10-13T07:03:25;19.30;89.90
5960;DHT22;3006;50.956;7.002;2023-10-13T07:05:53;19.50;89.20
5960;DHT22;3006;50.956;7.002;2023-10-13T07:08:27;19.50;88.90
5960;DHT22;3006;50.956;7.002;2023-10-13T07:10:57;19.50;89.20
5960;DHT22;3006;50.956;7.002;2023-10-13T07:13:41;19.70;87.90
5960;DHT22;3006;50.956;7.002;2023-10-13T07:16:16;19.70;88.20
5960;DHT22;3006;50.956;7.002;2023-10-13T07:18:56;19.70;87.90
5960;DHT22;3006;50.956;7.002;2023-10-13T07:21:33;20.10;86.40
5960;DHT22;3006;50.956;7.002;2023-10-13T07:24:01;19.90;86.90
5960;DHT22;3006;50.956;7.002;2023-10-13T07:26:38;20.00;86.50
5960;DHT22;3006;50.956;7.002;2023-10-13T07:29:12;19.70;87.60
5960;DHT22;3006;50.956;7.002;2023-10-13T07:31:41;19.90;87.10
5960;DHT22;3006;50.956;7.002;2023-10-13T07:34:12;19.70;87.50
5960;DHT22;3006;50.956;7.002;2023-10-13T07:36:53;19.50;88.80
5960;DHT22;3006;50.956;7.002;2023-10-13T07:39:28;19.70;88.10
5960;DHT22;3006;50.956;7.002;2023-10-13T07:42:01;19.70;88.30
5960;DHT22;3006;50.956;7.002;2023-10-13T07:44:36;19.70;87.80
5960;DHT22;3006;50.956;7.002;2023-10-13T07:47:13;19.70;88.00
5960;DHT22;3006;50.956;7.002;2023-10-13T07:49:43;19.70;88.00
5960;DHT22;3006;50.956;7.002;2023-10-13T07:52:12;19.70;88.40
5960;DHT22;3006;50.956;7.002;2023-10-13T07:54:55;19.70;88.60
5960;DHT22;3006;50.956;7.002;2023-10-13T07:57:27;19.70;88.20
5960;DHT22;3006;50.956;7.002;2023-10-13T07:59:58;19.70;88.00
5960;DHT22;3006;50.956;7.002;2023-10-13T08:02:40;20.00;86.90
5960;DHT22;3006;50.956;7.002;2023-10-13T08:05:18;20.00;87.20
5960;DHT22;3006;50.956;7.002;2023-10-13T08:08:06;20.10;86.60
5960;DHT22;3006;50.956;7.002;2023-10-13T08:10:41;20.10;86.40
5960;DHT22;3006;50.956;7.002;2023-10-13T08:13:12;20.00;87.00
5960;DHT22;3006;50.956;7.002;2023-10-13T08:15:42;20.20;86.10
5960;DHT22;3006;50.956;7.002;2023-10-13T08:18:14;20.30;85.70
5960;DHT22;3006;50.956;7.002;2023-10-13T08:20:57;20.30;85.30
5960;DHT22;3006;50.956;7.002;2023-10-13T08:23:31;20.50;84.60
5960;DHT22;3006;50.956;7.002;2023-10-13T08:26:24;20.30;85.30
5960;DHT22;3006;50.956;7.002;2023-10-13T08:29:10;20.40;84.80
5960;DHT22;3006;50.956;7.002;2023-10-13T08:31:57;20.50;84.30
5960;DHT22;3006;50.956;7.002;2023-10-13T08:34:41;20.50;84.10
5960;DHT22;3006;50.956;7.002;2023-10-13T08:37:23;20.50;84.00
5960;DHT22;3006;50.956;7.002;2023-10-13T08:39:57;20.60;83.00
5960;DHT22;3006;50.956;7.002;2023-10-13T08:42:53;20.60;82.80
5960;DHT22;3006;50.956;7.002;2023-10-13T08:45:39;20.50;83.00
5960;DHT22;3006;50.956;7.002;2023-10-13T08:48:26;20.50;82.90
5960;DHT22;3006;50.956;7.002;2023-10-13T08:51:00;20.50;83.10
5960;DHT22;3006;50.956;7.002;2023-10-13T08:53:38;20.60;82.00
5960;DHT22;3006;50.956;7.002;2023-10-13T08:56:20;20.70;81.70
5960;DHT22;3006;50.956;7.002;2023-10-13T08:59:01;20.90;80.40
5960;DHT22;3006;50.956;7.002;2023-10-13T09:01:37;21.00;79.70
5960;DHT22;3006;50.956;7.002;2023-10-13T09:04:16;21.00;79.30
5960;DHT22;3006;50.956;7.002;2023-10-13T09:06:51;20.90;79.70
5960;DHT22;3006;50.956;7.002;2023-10-13T09:09:46;21.00;79.30
5960;DHT22;3006;50.956;7.002;2023-10-13T09:12:54;21.00;78.50
5960;DHT22;3006;50.956;7.002;2023-10-13T09:15:38;21.00;78.10
5960;DHT22;3006;50.956;7.002;2023-10-13T09:18:25;21.00;78.00
5960;DHT22;3006;50.956;7.002;2023-10-13T09:21:16;21.10;77.20
5960;DHT22;3006;50.956;7.002;2023-10-13T09:24:00;21.10;76.60
5960;DHT22;3006;50.956;7.002;2023-10-13T09:26:50;21.10;76.00
5960;DHT22;3006;50.956;7.002;2023-10-13T09:29:23;21.20;75.40
5960;DHT22;3006;50.956;7.002;2023-10-13T09:32:00;21.20;75.00
5960;DHT22;3006;50.956;7.002;2023-10-13T09:34:27;21.30;74.70
5960;DHT22;3006;50.956;7.002;2023-10-13T09:37:00;21.30;73.80
5960;DHT22;3006;50.956;7.002;2023-10-13T09:39:32;21.40;73.50
5960;DHT22;3006;50.956;7.002;2023-10-13T09:42:12;21.50;72.90
5960;DHT22;3006;50.956;7.002;2023-10-13T09:44:44;21.50;72.70
5960;DHT22;3006;50.956;7.002;2023-10-13T09:47:21;21.50;72.30
5960;DHT22;3006;50.956;7.002;2023-10-13T09:50:00;21.60;71.80
5960;DHT22;3006;50.956;7.002;2023-10-13T09:52:34;21.70;71.80
5960;DHT22;3006;50.956;7.002;2023-10-13T09:55:15;21.50;72.50
5960;DHT22;3006;50.956;7.002;2023-10-13T09:57:56;21.60;71.80
5960;DHT22;3006;50.956;7.002;2023-10-13T10:00:29;21.70;71.30
5960;DHT22;3006;50.956;7.002;2023-10-13T10:03:14;21.80;70.80
5960;DHT22;3006;50.956;7.002;2023-10-13T10:06:01;21.90;69.90
5960;DHT22;3006;50.956;7.002;2023-10-13T10:08:34;22.00;68.90
5960;DHT22;3006;50.956;7.002;2023-10-13T10:14:23;21.90;69.90
5960;DHT22;3006;50.956;7.002;2023-10-13T10:17:04;22.00;69.50
5960;DHT22;3006;50.956;7.002;2023-10-13T10:19:46;21.90;69.70
5960;DHT22;3006;50.956;7.002;2023-10-13T10:22:25;21.90;69.70
5960;DHT22;3006;50.956;7.002;2023-10-13T10:24:57;22.00;69.50
5960;DHT22;3006;50.956;7.002;2023-10-13T10:27:28;22.10;69.50
5960;DHT22;3006;50.956;7.002;2023-10-13T10:29:57;22.10;69.50
5960;DHT22;3006;50.956;7.002;2023-10-13T10:32:33;22.30;68.70
5960;DHT22;3006;50.956;7.002;2023-10-13T10:35:06;22.30;68.00
5960;DHT22;3006;50.956;7.002;2023-10-13T10:37:36;22.40;68.10
5960;DHT22;3006;50.956;7.002;2023-10-13T10:40:11;22.50;67.60
5960;DHT22;3006;50.956;7.002;2023-10-13T10:42:58;22.60;67.20
5960;DHT22;3006;50.956;7.002;2023-10-13T10:45:36;22.70;66.20
5960;DHT22;3006;50.956;7.002;2023-10-13T10:48:12;22.70;66.40
5960;DHT22;3006;50.956;7.002;2023-10-13T10:50:51;22.60;66.00
5960;DHT22;3006;50.956;7.002;2023-10-13T10:53:21;22.50;65.90
5960;DHT22;3006;50.956;7.002;2023-10-13T10:56:08;22.50;66.10
5960;DHT22;3006;50.956;7.002;2023-10-13T10:58:47;22.50;66.50
5960;DHT22;3006;50.956;7.002;2023-10-13T11:01:15;22.50;65.80
5960;DHT22;3006;50.956;7.002;2023-10-13T11:03:58;22.50;65.40
5960;DHT22;3006;50.956;7.002;2023-10-13T11:06:34;22.50;65.90
5960;DHT22;3006;50.956;7.002;2023-10-13T11:09:09;22.50;65.70
5960;DHT22;3006;50.956;7.002;2023-10-13T11:11:49;22.50;66.20
5960;DHT22;3006;50.956;7.002;2023-10-13T11:14:20;22.50;65.70
5960;DHT22;3006;50.956;7.002;2023-10-13T11:16:50;22.50;66.00
5960;DHT22;3006;50.956;7.002;2023-10-13T11:19:21;22.50;65.90
5960;DHT22;3006;50.956;7.002;2023-10-13T11:21:53;22.60;65.50
5960;DHT22;3006;50.956;7.002;2023-10-13T11:24:23;22.60;65.40
5960;DHT22;3006;50.956;7.002;2023-10-13T11:26:52;22.60;64.70
5960;DHT22;3006;50.956;7.002;2023-10-13T11:29:31;22.60;65.30
5960;DHT22;3006;50.956;7.002;2023-10-13T11:32:01;22.60;64.40
5960;DHT22;3006;50.956;7.002;2023-10-13T11:34:30;22.50;64.80
5960;DHT22;3006;50.956;7.002;2023-10-13T11:37:07;22.50;64.70
5960;DHT22;3006;50.956;7.002;2023-10-13T11:39:55;22.60;64.20
5960;DHT22;3006;50.956;7.002;2023-10-13T11:42:24;22.60;64.10
5960;DHT22;3006;50.956;7.002;2023-10-13T11:44:54;22.60;64.40
5960;DHT22;3006;50.956;7.002;2023-10-13T11:47:41;22.70;64.40
5960;DHT22;3006;50.956;7.002;2023-10-13T11:50:26;22.70;64.40
5960;DHT22;3006;50.956;7.002;2023-10-13T11:53:01;22.70;64.40
5960;DHT22;3006;50.956;7.002;2023-10-13T11:55:34;22.80;64.30
5960;DHT22;3006;50.956;7.002;2023-10-13T11:58:05;22.80;64.30
5960;DHT22;3006;50.956;7.002;2023-10-13T12:00:34;22.90;64.10
5960;DHT22;3006;50.956;7.002;2023-10-13T12:03:16;22.90;63.40
5960;DHT22;3006;50.956;7.002;2023-10-13T12:06:01;22.90;63.50
5960;DHT22;3006;50.956;7.002;2023-10-13T12:08:46;22.80;63.50
5960;DHT22;3006;50.956;7.002;2023-10-13T12:11:19;22.80;63.60
5960;DHT22;3006;50.956;7.002;2023-10-13T12:14:00;22.80;63.20
5960;DHT22;3006;50.956;7.002;2023-10-13T12:16:38;22.70;63.30
5960;DHT22;3006;50.956;7.002;2023-10-13T12:19:07;22.70;63.20
5960;DHT22;3006;50.956;7.002;2023-10-13T12:21:38;22.70;62.90
5960;DHT22;3006;50.956;7.002;2023-10-13T12:24:07;22.60;62.80
5960;DHT22;3006;50.956;7.002;2023-10-13T12:26:49;22.60;63.30
5960;DHT22;3006;50.956;7.002;2023-10-13T12:29:24;22.60;62.90
5960;DHT22;3006;50.956;7.002;2023-10-13T12:31:55;22.60;62.50
5960;DHT22;3006;50.956;7.002;2023-10-13T12:34:35;22.60;62.20
5960;DHT22;3006;50.956;7.002;2023-10-13T12:37:27;22.60;62.20
5960;DHT22;3006;50.956;7.002;2023-10-13T12:40:19;22.60;62.10
5960;DHT22;3006;50.956;7.002;2023-10-13T12:43:05;22.60;62.60
5960;DHT22;3006;50.956;7.002;2023-10-13T12:45:52;22.60;62.20
5960;DHT22;3006;50.956;7.002;2023-10-13T12:48:40;22.50;62.60
5960;DHT22;3006;50.956;7.002;2023-10-13T12:51:30;22.50;61.90
5960;DHT22;3006;50.956;7.002;2023-10-13T12:54:17;22.50;61.80
5960;DHT22;3006;50.956;7.002;2023-10-13T12:56:51;22.50;61.90
5960;DHT22;3006;50.956;7.002;2023-10-13T12:59:23;22.50;61.80
5960;DHT22;3006;50.956;7.002;2023-10-13T13:01:55;22.50;61.30
5960;DHT22;3006;50.956;7.002;2023-10-13T13:04:23;22.50;61.10
5960;DHT22;3006;50.956;7.002;2023-10-13T13:06:55;22.50;61.10
5960;DHT22;3006;50.956;7.002;2023-10-13T13:09:23;22.50;62.00
5960;DHT22;3006;50.956;7.002;2023-10-13T13:11:53;22.50;62.10
5960;DHT22;3006;50.956;7.002;2023-10-13T13:14:24;22.50;61.10
5960;DHT22;3006;50.956;7.002;2023-10-13T13:16:57;22.50;61.70
5960;DHT22;3006;50.956;7.002;2023-10-13T13:19:32;22.50;61.10
5960;DHT22;3006;50.956;7.002;2023-10-13T13:22:03;22.50;60.60
5960;DHT22;3006;50.956;7.002;2023-10-13T13:24:32;22.50;60.80
5960;DHT22;3006;50.956;7.002;2023-10-13T13:27:00;22.60;60.20
5960;DHT22;3006;50.956;7.002;2023-10-13T13:29:30;22.70;59.70
5960;DHT22;3006;50.956;7.002;2023-10-13T13:32:00;22.60;59.60
5960;DHT22;3006;50.956;7.002;2023-10-13T13:34:28;22.60;59.60
5960;DHT22;3006;50.956;7.002;2023-10-13T13:36:57;22.60;59.90
5960;DHT22;3006;50.956;7.002;2023-10-13T13:39:27;22.50;60.10
5960;DHT22;3006;50.956;7.002;2023-10-13T13:41:57;22.50;59.50
5960;DHT22;3006;50.956;7.002;2023-10-13T13:44:25;22.50;59.50
5960;DHT22;3006;50.956;7.002;2023-10-13T13:47:02;22.50;60.00
5960;DHT22;3006;50.956;7.002;2023-10-13T13:49:39;22.50;60.10
5960;DHT22;3006;50.956;7.002;2023-10-13T13:52:08;22.50;60.70
5960;DHT22;3006;50.956;7.002;2023-10-13T13:54:36;22.50;61.10
5960;DHT22;3006;50.956;7.002;2023-10-13T13:57:07;22.30;62.60
5960;DHT22;3006;50.956;7.002;2023-10-13T13:59:35;22.40;61.00
5960;DHT22;3006;50.956;7.002;2023-10-13T14:02:05;22.50;61.30
5960;DHT22;3006;50.956;7.002;2023-10-13T14:04:47;22.50;61.30
5960;DHT22;3006;50.956;7.002;2023-10-13T14:07:18;22.50;61.60
5960;DHT22;3006;50.956;7.002;2023-10-13T14:09:48;22.60;61.50
5960;DHT22;3006;50.956;7.002;2023-10-13T14:12:19;22.60;61.30
5960;DHT22;3006;50.956;7.002;2023-10-13T14:14:56;22.60;62.00
5960;DHT22;3006;50.956;7.002;2023-10-13T14:17:26;22.50;61.50
5960;DHT22;3006;50.956;7.002;2023-10-13T14:19:56;22.60;61.60
5960;DHT22;3006;50.956;7.002;2023-10-13T14:22:25;22.60;60.70
5960;DHT22;3006;50.956;7.002;2023-10-13T14:24:53;22.60;60.90
5960;DHT22;3006;50.956;7.002;2023-10-13T14:27:22;22.70;60.70
5960;DHT22;3006;50.956;7.002;2023-10-13T14:29:52;22.70;60.50
5960;DHT22;3006;50.956;7.002;2023-10-13T14:32:21;22.60;61.40
5960;DHT22;3006;50.956;7.002;2023-10-13T14:34:53;22.50;62.20
5960;DHT22;3006;50.956;7.002;2023-10-13T14:37:23;22.50;61.40
5960;DHT22;3006;50.956;7.002;2023-10-13T14:39:57;22.50;61.70
5960;DHT22;3006;50.956;7.002;2023-10-13T14:42:27;22.50;61.50
5960;DHT22;3006;50.956;7.002;2023-10-13T14:44:55;22.50;61.70
5960;DHT22;3006;50.956;7.002;2023-10-13T14:47:23;22.50;61.40
5960;DHT22;3006;50.956;7.002;2023-10-13T14:49:54;22.50;62.50
5960;DHT22;3006;50.956;7.002;2023-10-13T14:52:23;22.50;61.80
5960;DHT22;3006;50.956;7.002;2023-10-13T14:54:51;22.40;61.70
5960;DHT22;3006;50.956;7.002;2023-10-13T14:57:23;22.50;62.10
5960;DHT22;3006;50.956;7.002;2023-10-13T14:59:52;22.50;61.00
5960;DHT22;3006;50.956;7.002;2023-10-13T15:02:21;22.50;61.30
5960;DHT22;3006;50.956;7.002;2023-10-13T15:04:50;22.50;60.70
5960;DHT22;3006;50.956;7.002;2023-10-13T15:07:19;22.50;60.50
5960;DHT22;3006;50.956;7.002;2023-10-13T15:09:49;22.40;60.30
5960;DHT22;3006;50.956;7.002;2023-10-13T15:12:17;22.50;60.90
5960;DHT22;3006;50.956;7.002;2023-10-13T15:14:55;22.40;60.00
5960;DHT22;3006;50.956;7.002;2023-10-13T15:17:23;22.50;59.70
5960;DHT22;3006;50.956;7.002;2023-10-13T15:19:55;22.50;59.00
5960;DHT22;3006;50.956;7.002;2023-10-13T15:22:25;22.50;58.90
5960;DHT22;3006;50.956;7.002;2023-10-13T15:24:55;22.50;58.50
5960;DHT22;3006;50.956;7.002;2023-10-13T15:27:36;22.20;58.60
5960;DHT22;3006;50.956;7.002;2023-10-13T15:30:09;22.10;59.00
5960;DHT22;3006;50.956;7.002;2023-10-13T15:32:47;22.10;58.90
5960;DHT22;3006;50.956;7.002;2023-10-13T15:35:16;22.10;58.40
5960;DHT22;3006;50.956;7.002;2023-10-13T15:37:46;22.10;58.20
5960;DHT22;3006;50.956;7.002;2023-10-13T15:40:15;22.00;58.70
5960;DHT22;3006;50.956;7.002;2023-10-13T15:42:44;22.00;59.20
5960;DHT22;3006;50.956;7.002;2023-10-13T15:45:13;22.00;58.80
5960;DHT22;3006;50.956;7.002;2023-10-13T15:47:49;22.00;59.60
5960;DHT22;3006;50.956;7.002;2023-10-13T15:50:20;22.00;59.00
5960;DHT22;3006;50.956;7.002;2023-10-13T15:52:50;22.00;59.20
5960;DHT22;3006;50.956;7.002;2023-10-13T15:55:18;21.90;59.20
5960;DHT22;3006;50.956;7.002;2023-10-13T15:57:47;21.90;59.70
5960;DHT22;3006;50.956;7.002;2023-10-13T16:00:20;21.90;60.00
5960;DHT22;3006;50.956;7.002;2023-10-13T16:02:53;21.90;60.30
5960;DHT22;3006;50.956;7.002;2023-10-13T16:05:29;21.80;61.20
5960;DHT22;3006;50.956;7.002;2023-10-13T16:08:04;21.80;59.70
5960;DHT22;3006;50.956;7.002;2023-10-13T16:10:33;21.90;59.70
5960;DHT22;3006;50.956;7.002;2023-10-13T16:13:03;21.90;59.70
5960;DHT22;3006;50.956;7.002;2023-10-13T16:15:35;21.90;59.80
5960;DHT22;3006;50.956;7.002;2023-10-13T16:18:07;21.90;60.40
5960;DHT22;3006;50.956;7.002;2023-10-13T16:20:36;21.80;61.00
5960;DHT22;3006;50.956;7.002;2023-10-13T16:23:06;21.70;61.00
5960;DHT22;3006;50.956;7.002;2023-10-13T16:25:35;21.80;61.70
5960;DHT22;3006;50.956;7.002;2023-10-13T16:28:04;21.70;62.30
5960;DHT22;3006;50.956;7.002;2023-10-13T16:30:32;21.70;62.30
5960;DHT22;3006;50.956;7.002;2023-10-13T16:33:00;21.70;62.50
5960;DHT22;3006;50.956;7.002;2023-10-13T16:35:29;21.70;62.30
5960;DHT22;3006;50.956;7.002;2023-10-13T16:38:00;21.70;62.10
5960;DHT22;3006;50.956;7.002;2023-10-13T16:40:35;21.70;62.20
5960;DHT22;3006;50.956;7.002;2023-10-13T16:43:06;21.70;62.20
5960;DHT22;3006;50.956;7.002;2023-10-13T16:45:35;21.70;61.60
5960;DHT22;3006;50.956;7.002;2023-10-13T16:48:04;21.70;61.90
5960;DHT22;3006;50.956;7.002;2023-10-13T16:50:32;21.70;61.80
5960;DHT22;3006;50.956;7.002;2023-10-13T16:53:04;21.70;62.20
5960;DHT22;3006;50.956;7.002;2023-10-13T16:55:36;21.70;61.90
5960;DHT22;3006;50.956;7.002;2023-10-13T16:58:09;21.60;62.10
5960;DHT22;3006;50.956;7.002;2023-10-13T17:00:39;21.50;62.20